This is the latest recevied weather packets stored in our database for station/object NG6B-2. If no packets are shown the sender has not sent any weather packets the latest 1 day(s).
| Time | Temp. | Humidity | Pressure | Rain* | Wind** | Luminosity | Snow |
|---|---|---|---|---|---|---|---|
| 1836274504 | 26.11° C | 50% | 1008.9 hPa | 0 mm | 2.68 m/s, 82° | - | - |
| 1778087151 | 20.56° C | 34% | 1009.7 hPa | 0 mm | 0.45 m/s, 304° | - | - |
| 1778085350 | 19.44° C | 34% | 1009.6 hPa | 0 mm | 0 m/s | - | - |
| 1778083549 | 18.89° C | 41% | 1009.5 hPa | 0 mm | 0.45 m/s, 262° | - | - |
| 1778081748 | 17.22° C | 46% | 1009.5 hPa | 0 mm | 0 m/s | - | - |
| 1778079947 | 16.67° C | 49% | 1009.6 hPa | 0 mm | 0.89 m/s, 197° | - | - |
| 1778078146 | 15.56° C | 53% | 1009.5 hPa | 0 mm | 0 m/s | - | - |
| 1778076345 | 13.89° C | 59% | 1009.5 hPa | 0 mm | 0 m/s | - | - |
| 1778074544 | 10.56° C | 74% | 1009.4 hPa | 0 mm | 0 m/s | - | - |
| 1778072743 | 8.33° C | 79% | 1009.2 hPa | 0 mm | 0 m/s | - | - |
| 1778070942 | 8.33° C | 78% | 1008.9 hPa | 0 mm | 0 m/s | - | - |
| 1778069141 | 8.33° C | 78% | 1008.6 hPa | 0 mm | 0 m/s | - | - |
| 1778067340 | 8.89° C | 76% | 1008.4 hPa | 0 mm | 0 m/s | - | - |
| 1778065539 | 8.89° C | 76% | 1008.3 hPa | 0 mm | 0 m/s | - | - |
| 1778063738 | 9.44° C | 73% | 1008.3 hPa | 0 mm | 0 m/s | - | - |
| 1778061937 | 10° C | 70% | 1007.9 hPa | 0 mm | 0 m/s | - | - |
| 1778060136 | 10.56° C | 70% | 1008 hPa | 0 mm | 0 m/s | - | - |
| 1778058335 | 11.11° C | 69% | 1007.8 hPa | 0 mm | 0 m/s | - | - |
| 1778056534 | 11.11° C | 68% | 1007.9 hPa | 0 mm | 0 m/s | - | - |
| 1778054733 | 12.78° C | 62% | 1008 hPa | 0 mm | 0 m/s | - | - |
| 1778052932 | 13.89° C | 58% | 1008 hPa | 0 mm | 0 m/s | - | - |
| 1778051131 | 13.89° C | 58% | 1007.9 hPa | 0 mm | 0 m/s | - | - |
| 1778049330 | 14.44° C | 59% | 1007.7 hPa | 0 mm | 0 m/s | - | - |
| 1778047529 | 14.44° C | 58% | 1007.8 hPa | 0 mm | 0 m/s | - | - |
| 1778045728 | 15.56° C | 55% | 1007.7 hPa | 0 mm | 0 m/s | - | - |
* Rain latest hour (hover to see other rain measurements)
** Current wind speed in m/s (hover to see current wind gust speed)